Time;durP1;ratioP1;P1;durP2;ratioP2;P2;SDS_P1;SDS_P2;PMS_P1;PMS_P2;Temp;Humidity;BMP_temperature;BMP_pressure;BME280_temperature;BME280_humidity;BME280_pressure;Samples;Min_cycle;Max_cycle;Signal;HPM_P1;HPM_P2
2022/12/24 00:01:26;;;;;;;11.00;3.28;;;20.40;99.90;;;;;;4212110;28;20276;-74
2022/12/24 00:03:28;;;;;;;7.25;3.15;;;20.40;99.90;;;;;;4206559;28;20215;-74
2022/12/24 00:05:31;;;;;;;9.57;3.30;;;20.40;99.90;;;;;;4209058;28;20214;-74
2022/12/24 00:07:33;;;;;;;7.15;2.92;;;20.40;99.90;;;;;;4198607;28;20277;-73
2022/12/24 00:09:35;;;;;;;9.48;3.28;;;20.40;99.90;;;;;;4205139;28;20219;-74
2022/12/24 00:11:39;;;;;;;7.28;3.05;;;20.40;99.90;;;;;;4212192;28;20222;-74
2022/12/24 00:13:42;;;;;;;9.52;3.20;;;20.40;99.90;;;;;;4215163;28;20610;-74
2022/12/24 00:15:44;;;;;;;11.85;3.17;;;20.30;99.90;;;;;;4215644;28;20210;-73
2022/12/24 00:17:46;;;;;;;9.13;3.20;;;20.40;99.90;;;;;;4211771;28;20214;-73
2022/12/24 00:19:49;;;;;;;9.73;3.10;;;20.40;99.90;;;;;;4201556;28;20256;-73
2022/12/24 00:21:51;;;;;;;8.40;3.03;;;20.30;99.90;;;;;;4198566;28;20265;-73
2022/12/24 00:23:53;;;;;;;8.93;3.30;;;20.40;99.90;;;;;;4203509;28;20215;-73
2022/12/24 00:25:56;;;;;;;9.43;3.08;;;20.30;99.90;;;;;;4214814;28;20218;-73
2022/12/24 00:28:00;;;;;;;9.95;3.42;;;20.30;99.90;;;;;;4201173;28;20220;-74
2022/12/24 00:30:02;;;;;;;9.23;3.55;;;20.30;99.90;;;;;;4198147;28;20249;-74
2022/12/24 00:32:08;;;;;;;9.82;3.05;;;20.30;99.90;;;;;;4200053;28;20276;-74
2022/12/24 00:34:11;;;;;;;8.90;3.20;;;20.30;99.90;;;;;;4213045;28;20210;-74
2022/12/24 00:36:13;;;;;;;8.35;3.30;;;20.30;99.90;;;;;;4214894;28;20203;-74
2022/12/24 00:38:15;;;;;;;8.98;3.30;;;20.30;99.90;;;;;;4211706;28;20701;-74
2022/12/24 00:40:18;;;;;;;8.68;2.92;;;20.30;99.90;;;;;;4205016;28;20210;-74
2022/12/24 00:42:21;;;;;;;9.43;3.63;;;20.30;99.90;;;;;;4210817;28;20953;-74
2022/12/24 00:44:26;;;;;;;10.30;3.30;;;20.30;99.90;;;;;;4203838;28;20214;-74
2022/12/24 00:46:30;;;;;;;7.78;3.10;;;20.30;99.90;;;;;;4214644;28;20238;-74
2022/12/24 00:48:32;;;;;;;10.65;3.42;;;20.30;99.90;;;;;;4208728;28;20595;-74
2022/12/24 00:50:35;;;;;;;9.35;3.10;;;20.30;99.90;;;;;;4201317;28;20263;-74
2022/12/24 00:52:37;;;;;;;10.88;3.30;;;20.30;99.90;;;;;;4210336;28;20215;-74
2022/12/24 00:54:39;;;;;;;9.20;3.22;;;20.30;99.90;;;;;;4214670;28;20252;-74
2022/12/24 00:56:42;;;;;;;9.65;3.58;;;20.30;99.90;;;;;;4201276;28;20207;-74
2022/12/24 00:58:44;;;;;;;10.27;3.70;;;20.20;99.90;;;;;;4205741;28;20215;-74
2022/12/24 01:00:48;;;;;;;9.05;3.05;;;20.30;99.90;;;;;;4214603;28;20613;-74
2022/12/24 01:02:50;;;;;;;9.60;3.28;;;20.30;99.90;;;;;;4214641;28;20210;-74
2022/12/24 01:05:11;;;;;;;9.52;3.20;;;20.30;99.90;;;;;;4214489;28;20704;-74
2022/12/24 01:07:12;;;;;;;9.13;3.47;;;20.30;99.90;;;;;;4214729;28;20299;-74
2022/12/24 01:09:15;;;;;;;7.10;2.85;;;20.30;99.90;;;;;;4208450;28;20704;-74
2022/12/24 01:11:17;;;;;;;8.30;3.15;;;20.20;99.90;;;;;;4211838;28;20267;-74
2022/12/24 01:13:19;;;;;;;7.70;2.88;;;20.30;99.90;;;;;;4205856;28;20218;-74
2022/12/24 01:15:22;;;;;;;10.95;3.15;;;20.20;99.90;;;;;;4211907;28;20218;-74
2022/12/24 01:17:26;;;;;;;7.28;3.15;;;20.30;99.90;;;;;;4212421;28;20214;-82
2022/12/24 01:19:28;;;;;;;7.80;3.20;;;20.30;99.90;;;;;;4215507;28;20226;-82
2022/12/24 01:21:30;;;;;;;9.95;3.60;;;20.20;99.90;;;;;;4215436;28;20219;-82
2022/12/24 01:23:33;;;;;;;10.57;3.70;;;20.20;99.90;;;;;;4214592;28;20214;-82
2022/12/24 01:25:36;;;;;;;10.13;3.10;;;20.30;99.90;;;;;;4214945;28;20214;-82
2022/12/24 01:27:39;;;;;;;9.85;3.70;;;20.20;99.90;;;;;;4213607;28;20717;-82
2022/12/24 01:29:41;;;;;;;11.27;3.50;;;20.20;99.90;;;;;;4211098;28;20214;-82
2022/12/24 01:31:44;;;;;;;7.63;3.03;;;20.20;99.90;;;;;;4196714;28;20215;-82
2022/12/24 01:33:49;;;;;;;8.27;2.88;;;20.30;99.90;;;;;;4213934;28;20267;-82
2022/12/24 01:35:51;;;;;;;8.10;2.97;;;20.20;99.90;;;;;;4200434;28;20219;-82
2022/12/24 01:37:54;;;;;;;9.05;2.80;;;20.20;99.90;;;;;;4199533;28;20211;-82
2022/12/24 01:43:22;;;;;;;6.35;3.08;;;20.20;99.90;;;;;;4214581;28;20234;-82
2022/12/24 01:44:43;;;;;;;8.40;2.75;;;20.20;99.90;;;;;;4215389;28;20659;-81
2022/12/24 01:46:46;;;;;;;10.02;3.40;;;20.20;99.90;;;;;;4207411;28;20245;-82
2022/12/24 01:48:53;;;;;;;10.77;3.80;;;20.20;99.90;;;;;;4201406;28;20222;-82
2022/12/24 01:51:02;;;;;;;9.25;3.00;;;20.20;99.90;;;;;;4213187;28;20198;-82
2022/12/24 01:53:06;;;;;;;9.88;3.22;;;20.20;99.90;;;;;;4214749;28;20214;-82
2022/12/24 01:55:13;;;;;;;8.13;3.35;;;20.20;99.90;;;;;;4214875;28;20222;-82
2022/12/24 01:57:19;;;;;;;7.82;3.03;;;20.10;99.90;;;;;;4211394;28;20235;-81
2022/12/24 01:59:22;;;;;;;11.10;3.30;;;20.20;99.90;;;;;;4215090;28;20215;-82
2022/12/24 02:01:24;;;;;;;10.88;3.20;;;20.10;99.90;;;;;;4214813;28;20206;-82
2022/12/24 02:03:26;;;;;;;8.07;2.83;;;20.10;99.90;;;;;;4212883;28;20275;-82
2022/12/24 02:05:35;;;;;;;9.15;2.80;;;20.10;99.90;;;;;;4212847;28;20264;-82
2022/12/24 02:07:38;;;;;;;7.75;2.97;;;20.10;99.90;;;;;;4208026;28;20288;-81
2022/12/24 02:09:41;;;;;;;5.35;2.83;;;20.10;99.90;;;;;;4214709;28;20218;-81
2022/12/24 02:11:44;;;;;;;7.53;3.13;;;20.10;99.90;;;;;;4199053;28;20729;-82
2022/12/24 02:13:51;;;;;;;9.05;3.38;;;20.10;99.90;;;;;;4200880;28;20218;-81
2022/12/24 02:16:03;;;;;;;9.45;3.08;;;20.10;99.90;;;;;;4212338;28;20287;-82
2022/12/24 02:18:14;;;;;;;7.57;3.17;;;20.10;99.90;;;;;;4212183;28;20323;-82
2022/12/24 02:20:56;;;;;;;8.52;3.20;;;20.10;99.90;;;;;;4203000;28;20650;-82
2022/12/24 02:23:17;;;;;;;8.25;3.10;;;20.10;99.90;;;;;;4170204;28;20212;-81
2022/12/24 02:25:41;;;;;;;6.97;2.70;;;20.10;99.90;;;;;;4206284;28;20222;-82
2022/12/24 02:27:55;;;;;;;7.97;3.10;;;20.10;99.90;;;;;;4212410;28;20234;-82
2022/12/24 02:30:14;;;;;;;7.13;2.92;;;20.10;99.90;;;;;;4203272;28;20279;-82
2022/12/24 02:32:23;;;;;;;8.27;2.78;;;20.00;99.90;;;;;;4206204;28;20215;-82
2022/12/24 02:34:30;;;;;;;8.45;3.30;;;20.10;99.90;;;;;;4201685;28;20206;-82
2022/12/24 02:36:37;;;;;;;9.82;3.22;;;20.10;99.90;;;;;;4206044;28;20265;-82
2022/12/24 02:38:45;;;;;;;7.25;3.10;;;20.00;99.90;;;;;;4202670;28;20211;-82
2022/12/24 02:40:52;;;;;;;9.40;2.95;;;20.10;99.90;;;;;;4205766;28;20631;-81
2022/12/24 02:42:58;;;;;;;9.82;3.15;;;20.00;99.90;;;;;;4204085;28;20211;-81
2022/12/24 02:45:04;;;;;;;7.60;2.72;;;20.00;99.90;;;;;;4204620;28;20262;-82
2022/12/24 02:47:09;;;;;;;9.65;3.00;;;20.00;99.90;;;;;;4201417;28;20232;-81
2022/12/24 02:49:13;;;;;;;8.65;2.92;;;20.00;99.90;;;;;;4201522;28;20260;-82
2022/12/24 02:51:16;;;;;;;8.30;3.17;;;20.00;99.90;;;;;;4208324;28;20213;-82
2022/12/24 02:53:18;;;;;;;8.52;2.92;;;20.00;99.90;;;;;;4211614;28;20623;-82
2022/12/24 02:55:24;;;;;;;6.07;2.72;;;20.00;99.90;;;;;;4205175;28;20260;-82
2022/12/24 02:57:33;;;;;;;9.23;2.70;;;20.00;99.90;;;;;;4210273;28;20274;-82
2022/12/24 02:59:48;;;;;;;10.45;3.83;;;20.00;99.90;;;;;;4202430;28;20207;-82
2022/12/24 03:02:03;;;;;;;8.02;2.75;;;20.00;99.90;;;;;;4211415;28;20734;-82
2022/12/24 03:04:16;;;;;;;7.30;2.60;;;20.00;99.90;;;;;;4206364;28;20214;-82
2022/12/24 03:06:28;;;;;;;9.45;3.63;;;20.00;99.90;;;;;;4212133;28;20213;-82
2022/12/24 03:08:38;;;;;;;8.48;2.97;;;20.00;99.90;;;;;;4213785;28;20237;-82
2022/12/24 03:10:47;;;;;;;6.40;2.40;;;20.00;99.90;;;;;;4206900;28;20226;-82
2022/12/24 03:12:52;;;;;;;8.77;2.95;;;20.00;99.90;;;;;;4204891;28;20714;-82
2022/12/24 03:14:55;;;;;;;9.63;3.30;;;20.00;99.90;;;;;;4210211;28;20628;-82
2022/12/24 03:16:59;;;;;;;4.97;2.33;;;20.00;99.90;;;;;;4214099;28;20612;-82
2022/12/24 03:19:01;;;;;;;7.25;3.00;;;20.00;99.90;;;;;;4204217;28;20276;-82
2022/12/24 03:21:09;;;;;;;6.43;3.10;;;20.00;99.90;;;;;;4200422;28;20215;-82
2022/12/24 03:23:13;;;;;;;7.72;3.35;;;20.00;99.90;;;;;;4204218;28;20210;-81
2022/12/24 03:25:16;;;;;;;9.00;3.30;;;20.00;99.90;;;;;;4202018;28;20291;-82
2022/12/24 03:27:18;;;;;;;9.13;3.13;;;20.00;99.90;;;;;;4208335;28;20214;-81
2022/12/24 03:29:21;;;;;;;9.07;3.17;;;20.00;99.90;;;;;;4213514;28;20238;-82
2022/12/24 03:31:23;;;;;;;8.02;2.97;;;20.00;99.90;;;;;;4213618;28;20211;-81
2022/12/24 03:33:26;;;;;;;7.50;2.80;;;20.00;99.90;;;;;;4208409;28;20260;-82
2022/12/24 03:35:28;;;;;;;6.82;2.65;;;20.00;99.90;;;;;;4213511;28;20313;-82
2022/12/24 03:37:32;;;;;;;7.35;2.70;;;20.00;99.90;;;;;;4213470;28;20290;-81
2022/12/24 03:39:34;;;;;;;7.28;2.83;;;19.90;99.90;;;;;;4204303;28;20206;-82
2022/12/24 03:41:37;;;;;;;7.03;2.88;;;20.00;99.90;;;;;;4212612;28;20214;-82
2022/12/24 03:43:39;;;;;;;7.60;3.20;;;20.00;99.90;;;;;;4212870;28;20584;-82
2022/12/24 03:45:41;;;;;;;11.43;3.22;;;19.90;99.90;;;;;;4213319;28;20222;-82
2022/12/24 03:47:44;;;;;;;7.22;3.20;;;19.90;99.90;;;;;;4214943;28;20708;-82
2022/12/24 03:49:46;;;;;;;7.70;3.13;;;20.00;99.90;;;;;;4201067;28;20264;-82
2022/12/24 03:51:48;;;;;;;8.20;2.80;;;19.90;99.90;;;;;;4212625;28;20259;-82
2022/12/24 03:53:53;;;;;;;7.05;2.50;;;19.90;99.90;;;;;;4200112;28;20348;-82
2022/12/24 03:55:56;;;;;;;8.25;2.92;;;19.90;99.90;;;;;;4208733;28;20562;-82
2022/12/24 03:57:58;;;;;;;6.15;2.67;;;20.00;99.90;;;;;;4210040;28;20283;-82
2022/12/24 04:00:01;;;;;;;8.65;2.97;;;19.90;99.90;;;;;;4215682;28;20222;-82
2022/12/24 04:02:03;;;;;;;9.57;3.03;;;19.90;99.90;;;;;;4216717;28;20271;-82
2022/12/24 04:04:05;;;;;;;8.18;2.72;;;19.90;99.90;;;;;;4214884;28;20223;-82
2022/12/24 04:06:10;;;;;;;7.82;2.55;;;19.90;99.90;;;;;;4210711;28;20674;-82
2022/12/24 04:08:13;;;;;;;8.80;3.35;;;19.90;99.90;;;;;;4214333;28;20292;-82
2022/12/24 04:10:17;;;;;;;8.15;2.70;;;19.90;99.90;;;;;;4205619;28;20214;-82
2022/12/24 04:12:19;;;;;;;8.32;2.90;;;19.90;99.90;;;;;;4212610;28;20276;-82
2022/12/24 04:14:22;;;;;;;8.88;3.05;;;19.90;99.90;;;;;;4206113;28;20656;-82
2022/12/24 04:16:24;;;;;;;9.38;3.20;;;19.90;99.90;;;;;;4200869;28;20675;-81
2022/12/24 04:18:27;;;;;;;9.73;3.33;;;19.90;99.90;;;;;;4216315;28;20260;-82
2022/12/24 04:20:29;;;;;;;5.70;2.50;;;19.90;99.90;;;;;;4216308;28;20604;-82
2022/12/24 04:22:32;;;;;;;6.68;2.80;;;19.80;99.90;;;;;;4216578;28;20272;-82
2022/12/24 04:24:34;;;;;;;7.28;2.90;;;19.80;99.90;;;;;;4212037;28;20207;-82
2022/12/24 04:26:38;;;;;;;7.65;2.85;;;19.80;99.90;;;;;;4215567;28;20264;-82
2022/12/24 04:28:41;;;;;;;9.30;3.15;;;19.80;99.90;;;;;;4213729;28;20508;-81
2022/12/24 04:30:44;;;;;;;8.40;3.10;;;19.80;99.90;;;;;;4216364;28;20283;-82
2022/12/24 04:32:46;;;;;;;8.38;2.83;;;19.80;99.90;;;;;;4206102;28;20207;-82
2022/12/24 04:34:49;;;;;;;9.07;3.30;;;19.80;99.90;;;;;;4205261;28;20215;-81
2022/12/24 04:36:51;;;;;;;8.00;2.90;;;19.80;99.90;;;;;;4209205;28;20214;-82
2022/12/24 04:38:53;;;;;;;10.73;3.05;;;19.80;99.90;;;;;;4207397;28;20249;-82
2022/12/24 04:41:00;;;;;;;7.28;3.13;;;19.80;99.90;;;;;;4204501;28;20210;-81
2022/12/24 04:43:03;;;;;;;7.38;2.85;;;19.80;99.90;;;;;;4209971;28;20222;-81
2022/12/24 04:45:07;;;;;;;8.38;2.70;;;19.80;99.90;;;;;;4215314;28;20222;-82
2022/12/24 04:47:09;;;;;;;10.07;2.83;;;19.80;99.90;;;;;;4205828;28;20211;-82
2022/12/24 04:49:12;;;;;;;7.88;2.72;;;19.80;99.90;;;;;;4202325;28;20975;-82
2022/12/24 04:51:15;;;;;;;5.10;2.70;;;19.80;99.90;;;;;;4209963;28;20202;-82
2022/12/24 04:53:17;;;;;;;9.02;2.88;;;19.80;99.90;;;;;;4209401;28;20269;-82
2022/12/24 04:55:19;;;;;;;6.82;2.72;;;19.90;99.90;;;;;;4206260;28;20215;-81
2022/12/24 04:57:22;;;;;;;6.53;2.65;;;19.80;99.90;;;;;;4214094;28;20687;-82
2022/12/24 04:59:26;;;;;;;6.78;2.60;;;19.80;99.90;;;;;;4210935;28;20207;-81
2022/12/24 05:01:30;;;;;;;9.25;3.25;;;19.80;99.90;;;;;;4208062;28;20211;-82
2022/12/24 05:03:33;;;;;;;7.78;3.17;;;19.80;99.90;;;;;;4210177;28;20268;-82
2022/12/24 05:05:35;;;;;;;8.82;3.38;;;19.80;99.90;;;;;;4206638;28;20246;-82
2022/12/24 05:07:37;;;;;;;8.90;3.03;;;19.80;99.90;;;;;;4208552;28;20576;-82
2022/12/24 05:09:40;;;;;;;8.80;2.90;;;19.80;99.90;;;;;;4215687;28;20757;-82
2022/12/24 05:11:42;;;;;;;6.82;2.80;;;19.80;99.90;;;;;;4215911;28;20276;-82
2022/12/24 05:13:46;;;;;;;6.53;2.65;;;19.80;99.90;;;;;;4213762;28;20664;-82
2022/12/24 05:15:49;;;;;;;8.52;3.20;;;19.80;99.90;;;;;;4209374;28;20215;-82
2022/12/24 05:17:52;;;;;;;10.40;3.30;;;19.80;99.90;;;;;;4212927;28;20268;-81
2022/12/24 05:19:54;;;;;;;9.50;3.13;;;19.80;99.90;;;;;;4202326;28;20268;-82
2022/12/24 05:26:35;;;;;;;6.10;2.78;;;19.70;99.90;;;;;;4199715;28;20191;-82
2022/12/24 05:28:37;;;;;;;7.05;2.75;;;19.70;99.90;;;;;;4201096;28;20260;-82
2022/12/24 05:30:40;;;;;;;7.80;2.95;;;19.70;99.90;;;;;;4208158;28;20256;-82
2022/12/24 05:32:43;;;;;;;7.47;2.72;;;19.70;99.90;;;;;;4214071;28;20222;-82
2022/12/24 05:34:46;;;;;;;9.77;2.58;;;19.70;99.90;;;;;;4214870;28;20700;-82
2022/12/24 05:36:48;;;;;;;8.95;3.25;;;19.70;99.90;;;;;;4213590;28;20256;-82
2022/12/24 05:38:51;;;;;;;8.95;2.95;;;19.70;99.90;;;;;;4207071;28;20215;-81
2022/12/24 05:40:53;;;;;;;8.45;2.78;;;19.70;99.90;;;;;;4206957;28;20264;-82
2022/12/24 05:42:56;;;;;;;7.95;3.40;;;19.70;99.90;;;;;;4212521;28;20210;-81
2022/12/24 05:44:58;;;;;;;6.57;2.28;;;19.70;99.90;;;;;;4214686;28;20219;-82
2022/12/24 05:47:00;;;;;;;8.23;3.03;;;19.70;99.90;;;;;;4214679;28;20535;-82
2022/12/24 05:49:04;;;;;;;9.13;3.00;;;19.70;99.90;;;;;;4215002;28;20214;-81
2022/12/24 05:51:09;;;;;;;6.28;2.47;;;19.70;99.90;;;;;;4214730;28;20262;-82
2022/12/24 05:53:11;;;;;;;8.48;3.42;;;19.70;99.90;;;;;;4214923;28;20612;-82
2022/12/24 05:55:14;;;;;;;7.43;2.85;;;19.70;99.90;;;;;;4215083;28;20236;-83
2022/12/24 05:57:16;;;;;;;7.70;2.80;;;19.70;99.90;;;;;;4214995;28;20760;-82
2022/12/24 05:59:19;;;;;;;7.38;2.45;;;19.70;99.90;;;;;;4215326;28;20203;-82
2022/12/24 06:01:23;;;;;;;9.75;3.10;;;19.60;99.90;;;;;;4208527;28;20765;-82
2022/12/24 06:03:25;;;;;;;8.52;3.10;;;19.70;99.90;;;;;;4211915;28;20239;-82
2022/12/24 06:05:29;;;;;;;7.82;2.65;;;19.70;99.90;;;;;;4206146;28;20631;-82
2022/12/24 06:07:31;;;;;;;9.00;3.13;;;19.60;99.90;;;;;;4214709;28;20211;-82
2022/12/24 06:09:34;;;;;;;8.10;2.38;;;19.60;99.90;;;;;;4212759;28;20287;-82
2022/12/24 06:11:36;;;;;;;9.52;3.13;;;19.70;99.90;;;;;;4214400;28;20655;-83
2022/12/24 06:13:40;;;;;;;8.85;3.05;;;19.70;99.90;;;;;;4205729;28;20263;-82
2022/12/24 06:15:42;;;;;;;8.20;2.58;;;19.60;99.90;;;;;;4214569;28;20287;-82
2022/12/24 06:17:44;;;;;;;9.65;2.83;;;19.60;99.90;;;;;;4203953;28;20222;-82
2022/12/24 06:19:47;;;;;;;7.82;2.67;;;19.60;99.90;;;;;;4214399;28;20210;-82
2022/12/24 06:21:50;;;;;;;8.20;2.78;;;19.60;99.90;;;;;;4198235;28;20264;-82
2022/12/24 06:23:53;;;;;;;9.27;3.03;;;19.60;99.90;;;;;;4207767;28;20276;-82
2022/12/24 06:25:56;;;;;;;8.23;3.40;;;19.60;99.90;;;;;;4214780;28;20219;-83
2022/12/24 06:27:59;;;;;;;8.60;2.53;;;19.60;99.90;;;;;;4215405;28;20277;-82
2022/12/24 06:30:01;;;;;;;8.48;3.28;;;19.60;99.90;;;;;;4213843;28;20284;-82
2022/12/24 06:32:04;;;;;;;7.45;2.33;;;19.60;99.90;;;;;;4198458;28;20684;-83
2022/12/24 06:34:06;;;;;;;10.57;3.03;;;19.60;99.90;;;;;;4206133;28;21008;-82
2022/12/24 06:36:10;;;;;;;7.00;2.60;;;19.60;99.90;;;;;;4214886;28;20259;-82
2022/12/24 06:38:14;;;;;;;7.35;2.63;;;19.60;99.90;;;;;;4214786;28;20218;-82
2022/12/24 06:40:17;;;;;;;6.63;2.63;;;19.60;99.90;;;;;;4211772;28;20214;-83
2022/12/24 06:42:19;;;;;;;6.32;2.63;;;19.60;99.90;;;;;;4213165;28;20286;-82
2022/12/24 06:44:22;;;;;;;8.57;3.38;;;19.60;99.90;;;;;;4214197;28;20635;-82
2022/12/24 06:46:24;;;;;;;8.65;2.85;;;19.60;99.90;;;;;;4209170;28;20273;-82
2022/12/24 06:48:27;;;;;;;8.40;3.05;;;19.60;99.90;;;;;;4209635;28;20210;-82
2022/12/24 06:50:29;;;;;;;8.68;3.00;;;19.60;99.90;;;;;;4212769;28;20227;-82
2022/12/24 06:52:32;;;;;;;9.10;3.33;;;19.60;99.90;;;;;;4213574;28;20203;-82
2022/12/24 06:54:36;;;;;;;9.20;3.35;;;19.60;99.90;;;;;;4212870;28;20255;-82
2022/12/24 06:56:39;;;;;;;8.63;3.00;;;19.60;99.90;;;;;;4212543;28;20214;-82
2022/12/24 06:58:42;;;;;;;9.75;3.28;;;19.60;99.90;;;;;;4212875;28;20202;-82
2022/12/24 07:00:44;;;;;;;8.13;3.20;;;19.60;99.90;;;;;;4213554;28;20206;-82
2022/12/24 07:02:46;;;;;;;7.85;2.72;;;19.60;99.90;;;;;;4206779;28;20215;-82
2022/12/24 07:04:49;;;;;;;8.38;3.13;;;19.60;99.90;;;;;;4209581;28;20210;-82
2022/12/24 07:06:51;;;;;;;8.00;3.15;;;19.50;99.90;;;;;;4212642;28;20264;-82
2022/12/24 07:08:54;;;;;;;10.52;3.40;;;19.50;99.90;;;;;;4213281;28;20218;-82
2022/12/24 07:10:59;;;;;;;7.13;2.90;;;19.60;99.90;;;;;;4205000;28;20231;-82
2022/12/24 07:13:01;;;;;;;7.25;2.78;;;19.50;99.90;;;;;;4214035;28;20214;-82
2022/12/24 07:15:04;;;;;;;8.10;3.05;;;19.50;99.90;;;;;;4214501;28;20873;-82
2022/12/24 07:17:07;;;;;;;7.55;3.15;;;19.60;99.90;;;;;;4211420;28;20219;-83
2022/12/24 07:19:09;;;;;;;7.45;3.22;;;19.50;99.90;;;;;;4203501;28;20207;-82
2022/12/24 07:21:11;;;;;;;9.05;3.10;;;19.50;99.90;;;;;;4202236;28;20280;-82
2022/12/24 07:23:14;;;;;;;7.60;2.60;;;19.50;99.90;;;;;;4213879;28;20226;-83
2022/12/24 07:25:16;;;;;;;6.68;2.63;;;19.50;99.90;;;;;;4214115;28;20214;-83
2022/12/24 07:27:20;;;;;;;5.95;2.67;;;19.50;99.90;;;;;;4213801;28;20295;-82
2022/12/24 07:29:22;;;;;;;11.63;3.53;;;19.50;99.90;;;;;;4213738;28;20642;-82
2022/12/24 07:31:25;;;;;;;8.80;2.95;;;19.50;99.90;;;;;;4213374;28;20283;-82
2022/12/24 07:33:27;;;;;;;6.55;2.55;;;19.50;99.90;;;;;;4210510;28;20231;-82
2022/12/24 07:35:29;;;;;;;7.43;2.83;;;19.50;99.90;;;;;;4210087;28;20214;-82
2022/12/24 07:37:32;;;;;;;9.77;2.70;;;19.50;99.90;;;;;;4213327;28;20236;-82
2022/12/24 07:39:34;;;;;;;7.60;2.53;;;19.50;99.90;;;;;;4212888;28;20222;-82
2022/12/24 07:41:36;;;;;;;7.95;2.58;;;19.50;99.90;;;;;;4205081;28;20264;-82
2022/12/24 07:43:40;;;;;;;7.65;2.78;;;19.50;99.90;;;;;;4200698;28;20276;-82
2022/12/24 07:45:42;;;;;;;7.07;3.08;;;19.40;99.90;;;;;;4210288;28;20271;-82
2022/12/24 07:47:45;;;;;;;8.77;2.97;;;19.50;99.90;;;;;;4214010;28;20226;-82
2022/12/24 07:49:47;;;;;;;9.15;2.78;;;19.50;99.90;;;;;;4207855;28;20214;-82
2022/12/24 07:51:50;;;;;;;7.38;2.67;;;19.50;99.90;;;;;;4214047;28;20242;-82
2022/12/24 07:53:54;;;;;;;7.70;2.60;;;19.50;99.90;;;;;;4214151;28;20267;-82
2022/12/24 07:55:56;;;;;;;9.02;2.97;;;19.50;99.90;;;;;;4213617;28;20206;-82
2022/12/24 07:57:58;;;;;;;7.30;2.45;;;19.40;99.90;;;;;;4206261;28;20743;-82
2022/12/24 08:00:02;;;;;;;7.97;2.80;;;19.40;99.90;;;;;;4210492;28;20210;-82
2022/12/24 08:02:05;;;;;;;8.10;2.90;;;19.40;99.90;;;;;;4212874;28;20207;-82
2022/12/24 08:04:07;;;;;;;8.50;3.35;;;19.40;99.90;;;;;;4211140;28;20210;-82
2022/12/24 08:06:10;;;;;;;7.22;2.97;;;19.50;99.90;;;;;;4207181;28;20222;-82
2022/12/24 08:08:12;;;;;;;8.30;3.50;;;19.40;99.90;;;;;;4211195;28;21501;-82
2022/12/24 08:10:15;;;;;;;10.07;2.92;;;19.40;99.90;;;;;;4201474;28;20256;-82
2022/12/24 08:12:17;;;;;;;7.70;2.63;;;19.40;99.90;;;;;;4213220;28;20210;-82
2022/12/24 08:14:20;;;;;;;7.60;2.92;;;19.40;99.90;;;;;;4209472;28;20211;-82
2022/12/24 08:16:24;;;;;;;8.07;3.10;;;19.40;99.90;;;;;;4200299;28;20324;-82
2022/12/24 08:18:26;;;;;;;8.63;2.65;;;19.40;99.90;;;;;;4201099;28;20260;-82
2022/12/24 08:20:28;;;;;;;8.60;2.67;;;19.40;99.90;;;;;;4209473;28;20267;-82
2022/12/24 08:22:31;;;;;;;7.57;3.00;;;19.40;99.90;;;;;;4207845;28;20724;-82
2022/12/24 08:24:33;;;;;;;7.13;3.08;;;19.40;99.90;;;;;;4212352;28;20218;-82
2022/12/24 08:26:36;;;;;;;9.23;3.03;;;19.40;99.90;;;;;;4212950;28;20218;-82
2022/12/24 08:28:38;;;;;;;7.43;2.72;;;19.40;99.90;;;;;;4199188;28;20203;-82
2022/12/24 08:30:41;;;;;;;9.43;3.63;;;19.40;99.90;;;;;;4208493;28;20234;-82
2022/12/24 08:32:45;;;;;;;7.25;2.95;;;19.40;99.90;;;;;;4212535;28;20666;-82
2022/12/24 08:34:47;;;;;;;9.10;3.20;;;19.40;99.90;;;;;;4214960;28;20244;-82
2022/12/24 08:36:49;;;;;;;9.55;3.45;;;19.40;99.90;;;;;;4216179;28;20245;-82
2022/12/24 08:38:52;;;;;;;11.60;3.13;;;19.40;99.90;;;;;;4216145;28;20255;-82
2022/12/24 08:40:55;;;;;;;9.77;2.90;;;19.40;99.90;;;;;;4216153;28;20662;-82
2022/12/24 08:42:57;;;;;;;8.68;2.95;;;19.40;99.90;;;;;;4215480;28;20206;-82
2022/12/24 08:45:00;;;;;;;8.40;3.20;;;19.30;99.90;;;;;;4201175;28;20219;-83
2022/12/24 08:47:02;;;;;;;11.02;3.47;;;19.40;99.90;;;;;;4200012;28;20602;-82
2022/12/24 08:49:06;;;;;;;7.72;2.88;;;19.40;99.90;;;;;;4216328;28;20612;-82
2022/12/24 08:51:09;;;;;;;9.02;3.25;;;19.30;99.90;;;;;;4215860;28;20238;-82
2022/12/24 08:53:12;;;;;;;8.25;3.08;;;19.30;99.90;;;;;;4203732;28;20219;-82
2022/12/24 08:55:15;;;;;;;8.45;3.00;;;19.40;99.90;;;;;;4212823;28;20246;-82
2022/12/24 08:57:19;;;;;;;7.50;2.75;;;19.30;99.90;;;;;;4209297;28;20682;-82
2022/12/24 08:59:21;;;;;;;8.90;3.08;;;19.30;99.90;;;;;;4203475;28;20223;-82
2022/12/24 09:01:23;;;;;;;9.15;3.38;;;19.30;99.90;;;;;;4199096;28;20264;-82
2022/12/24 09:03:26;;;;;;;8.80;2.97;;;19.40;99.90;;;;;;4214992;28;20223;-82
2022/12/24 09:05:30;;;;;;;7.32;2.83;;;19.40;99.90;;;;;;4215624;28;20264;-82
2022/12/24 09:07:32;;;;;;;5.22;2.50;;;19.30;99.90;;;;;;4215553;28;20214;-82
2022/12/24 09:09:34;;;;;;;5.80;2.83;;;19.40;99.90;;;;;;4215657;28;20214;-82
2022/12/24 09:11:37;;;;;;;8.80;2.65;;;19.30;99.90;;;;;;4213611;28;20291;-82
2022/12/24 09:13:39;;;;;;;7.07;2.90;;;19.40;99.90;;;;;;4207499;28;20211;-82
2022/12/24 09:15:42;;;;;;;7.65;3.00;;;19.30;99.90;;;;;;4210025;28;20245;-82
2022/12/24 09:17:44;;;;;;;9.23;3.28;;;19.40;99.90;;;;;;4214459;28;20675;-82
2022/12/24 09:19:47;;;;;;;9.00;2.60;;;19.30;99.90;;;;;;4215352;28;20222;-82
2022/12/24 09:21:51;;;;;;;8.45;3.20;;;19.30;99.90;;;;;;4205260;28;20210;-82
2022/12/24 09:23:53;;;;;;;7.43;3.13;;;19.30;99.90;;;;;;4209037;28;20562;-82
2022/12/24 09:25:55;;;;;;;11.18;3.22;;;19.30;99.90;;;;;;4209274;28;20219;-82
2022/12/24 09:27:58;;;;;;;9.07;2.83;;;19.30;99.90;;;;;;4216003;28;20256;-83
2022/12/24 09:30:00;;;;;;;10.07;3.22;;;19.30;99.90;;;;;;4220838;28;20240;-81
2022/12/24 09:32:03;;;;;;;7.40;3.00;;;19.30;99.90;;;;;;4218263;28;20238;-83
2022/12/24 09:34:05;;;;;;;9.80;2.75;;;19.30;99.90;;;;;;4211831;28;20618;-81
2022/12/24 09:36:08;;;;;;;9.80;3.22;;;19.30;99.90;;;;;;4213778;28;20265;-81
2022/12/24 09:38:12;;;;;;;7.60;3.03;;;19.30;99.90;;;;;;4215684;28;20272;-81
2022/12/24 09:40:25;;;;;;;9.80;2.83;;;19.30;99.90;;;;;;4199571;28;20215;-81
2022/12/24 09:42:37;;;;;;;8.15;2.58;;;19.30;99.90;;;;;;4204906;28;20646;-81
2022/12/24 09:44:46;;;;;;;10.50;3.13;;;19.30;99.90;;;;;;4209826;28;20214;-81
2022/12/24 09:46:52;;;;;;;9.57;3.00;;;19.30;99.90;;;;;;4211519;28;20275;-81
2022/12/24 09:48:58;;;;;;;9.90;3.63;;;19.30;99.90;;;;;;4215725;28;20215;-81
2022/12/24 09:51:05;;;;;;;7.28;2.67;;;19.30;99.90;;;;;;4206530;28;20264;-81
2022/12/24 09:53:20;;;;;;;9.98;3.63;;;19.30;99.90;;;;;;4214456;28;20214;-82
2022/12/24 09:55:27;;;;;;;9.13;2.63;;;19.30;99.90;;;;;;4207816;28;20211;-81
2022/12/24 09:57:35;;;;;;;6.70;2.70;;;19.30;99.90;;;;;;4211975;28;20677;-81
2022/12/24 09:59:42;;;;;;;9.27;3.10;;;19.30;99.90;;;;;;4215348;28;20222;-81
2022/12/24 10:01:44;;;;;;;7.40;3.15;;;19.30;99.90;;;;;;4217539;28;20203;-81
2022/12/24 10:03:48;;;;;;;6.63;2.88;;;19.30;99.90;;;;;;4212694;28;20606;-81
2022/12/24 10:06:00;;;;;;;9.98;3.10;;;19.30;99.90;;;;;;4216803;28;20214;-81
2022/12/24 10:08:14;;;;;;;8.95;3.25;;;19.30;99.90;;;;;;4204148;28;20206;-81
2022/12/24 10:10:25;;;;;;;9.80;3.05;;;19.30;99.90;;;;;;4211924;28;20222;-81
2022/12/24 10:12:35;;;;;;;7.65;2.50;;;19.30;99.90;;;;;;4215125;28;20627;-81
2022/12/24 10:14:54;;;;;;;7.72;2.90;;;19.30;99.90;;;;;;4215134;28;20213;-81
2022/12/24 10:17:08;;;;;;;8.45;3.20;;;19.30;99.90;;;;;;4211936;28;20236;-81
2022/12/24 10:19:17;;;;;;;9.57;3.15;;;19.30;99.90;;;;;;4213617;28;20222;-81
2022/12/24 10:21:29;;;;;;;8.55;2.80;;;19.30;99.90;;;;;;4204388;28;20615;-81
2022/12/24 10:23:36;;;;;;;7.95;3.35;;;19.30;99.90;;;;;;4208537;28;20210;-81
2022/12/24 10:25:47;;;;;;;8.23;2.67;;;19.30;99.90;;;;;;4211991;28;20225;-81
2022/12/24 10:27:51;;;;;;;6.93;3.28;;;19.30;99.90;;;;;;4212650;28;20606;-81
2022/12/24 10:29:58;;;;;;;6.97;2.58;;;19.30;99.90;;;;;;4205427;28;20256;-82
2022/12/24 10:32:16;;;;;;;7.68;2.70;;;19.30;99.90;;;;;;4208671;28;20235;-82
2022/12/24 10:34:22;;;;;;;8.80;3.13;;;19.30;99.90;;;;;;4216504;28;20260;-81
2022/12/24 10:36:28;;;;;;;10.15;3.22;;;19.30;99.90;;;;;;4216996;28;20712;-81
2022/12/24 10:38:31;;;;;;;7.68;3.17;;;19.30;99.90;;;;;;4200002;28;20219;-81
2022/12/24 10:40:43;;;;;;;11.00;3.47;;;19.30;99.90;;;;;;4200164;28;20210;-81
2022/12/24 10:42:46;;;;;;;6.45;2.60;;;19.30;99.90;;;;;;4209109;28;20252;-81
2022/12/24 10:44:52;;;;;;;10.50;3.50;;;19.30;99.90;;;;;;4214566;28;20211;-81
2022/12/24 10:46:55;;;;;;;8.75;2.90;;;19.30;99.90;;;;;;4203533;28;20609;-81
2022/12/24 10:49:01;;;;;;;9.35;3.00;;;19.30;99.90;;;;;;4205527;28;20214;-81
2022/12/24 10:51:06;;;;;;;7.45;3.15;;;19.30;99.90;;;;;;4207533;28;20214;-82
2022/12/24 10:53:17;;;;;;;10.13;2.97;;;19.30;99.90;;;;;;4213942;28;20238;-81